Tullahassee, Oklahoma
Current Conditions -  °F | °C
As of 8:53 AM on Monday 24 Nov 2014 (Local Time) from KMKO Reporting Station
Clear Clear  
Wind Chill: 36°   Ceiling: Unl
Heat Index: 42°   Visibility: 10mi
Dew Point: 31°   Wind: 10mph
Humidity: 65%   Direction: 260°W
Pressure: 29.94"   Gusts: NA
Location:  35.84°N, 95.44°W
Report Text: KMKO 241453Z AUTO 26009KT 10SM CLR 06/M01 A2994 RMK AO2 SLP137 T00561006 51021
Loading
Personal Weather Stations






























Interactive Weather Map New forecast layout! Learn more

10-Day Weather Forecast

Advertisements
Track Severe Weather on mobile